sensor_id;sensor_type;location;lat;lon;timestamp;P1;durP1;ratioP1;P2;durP2;ratioP2
25707;SDS011;13567;61.652;17.100;2022-10-17T00:02:05;8.47;;;2.07;;
25707;SDS011;13567;61.652;17.100;2022-10-17T00:04:32;7.83;;;2.00;;
25707;SDS011;13567;61.652;17.100;2022-10-17T00:07:04;11.03;;;2.17;;
25707;SDS011;13567;61.652;17.100;2022-10-17T00:09:31;9.20;;;2.20;;
25707;SDS011;13567;61.652;17.100;2022-10-17T00:11:58;6.47;;;1.80;;
25707;SDS011;13567;61.652;17.100;2022-10-17T00:14:25;8.63;;;2.30;;
25707;SDS011;13567;61.652;17.100;2022-10-17T00:16:52;11.07;;;2.90;;
25707;SDS011;13567;61.652;17.100;2022-10-17T00:19:18;9.53;;;2.23;;
25707;SDS011;13567;61.652;17.100;2022-10-17T00:21:47;7.70;;;1.90;;
25707;SDS011;13567;61.652;17.100;2022-10-17T00:24:14;10.77;;;2.77;;
25707;SDS011;13567;61.652;17.100;2022-10-17T00:26:42;10.23;;;2.63;;
25707;SDS011;13567;61.652;17.100;2022-10-17T00:29:09;8.00;;;2.27;;
25707;SDS011;13567;61.652;17.100;2022-10-17T00:31:36;9.63;;;3.03;;
25707;SDS011;13567;61.652;17.100;2022-10-17T00:34:03;7.90;;;2.03;;
25707;SDS011;13567;61.652;17.100;2022-10-17T00:36:30;7.67;;;2.30;;
25707;SDS011;13567;61.652;17.100;2022-10-17T00:38:57;7.03;;;2.17;;
25707;SDS011;13567;61.652;17.100;2022-10-17T00:41:28;8.27;;;2.10;;
25707;SDS011;13567;61.652;17.100;2022-10-17T00:44:01;6.47;;;1.73;;
25707;SDS011;13567;61.652;17.100;2022-10-17T00:46:30;10.03;;;2.10;;
25707;SDS011;13567;61.652;17.100;2022-10-17T00:49:05;7.00;;;1.80;;
25707;SDS011;13567;61.652;17.100;2022-10-17T00:51:38;5.53;;;2.13;;
25707;SDS011;13567;61.652;17.100;2022-10-17T00:54:08;6.07;;;1.63;;
25707;SDS011;13567;61.652;17.100;2022-10-17T00:56:38;4.77;;;1.43;;
25707;SDS011;13567;61.652;17.100;2022-10-17T00:59:06;4.60;;;1.60;;
25707;SDS011;13567;61.652;17.100;2022-10-17T01:01:36;8.97;;;2.00;;
25707;SDS011;13567;61.652;17.100;2022-10-17T01:04:04;5.30;;;1.30;;
25707;SDS011;13567;61.652;17.100;2022-10-17T01:06:31;5.00;;;1.37;;
25707;SDS011;13567;61.652;17.100;2022-10-17T01:08:58;5.47;;;1.50;;
25707;SDS011;13567;61.652;17.100;2022-10-17T01:25:53;6.03;;;1.63;;
25707;SDS011;13567;61.652;17.100;2022-10-17T01:33:47;4.23;;;1.67;;
25707;SDS011;13567;61.652;17.100;2022-10-17T01:39:09;2.53;;;0.90;;
25707;SDS011;13567;61.652;17.100;2022-10-17T01:41:42;1.17;;;0.83;;
25707;SDS011;13567;61.652;17.100;2022-10-17T01:44:13;4.33;;;0.80;;
25707;SDS011;13567;61.652;17.100;2022-10-17T01:46:49;2.23;;;0.77;;
25707;SDS011;13567;61.652;17.100;2022-10-17T01:49:23;0.67;;;0.60;;
25707;SDS011;13567;61.652;17.100;2022-10-17T01:51:59;1.90;;;0.80;;
25707;SDS011;13567;61.652;17.100;2022-10-17T01:54:48;1.90;;;0.70;;
25707;SDS011;13567;61.652;17.100;2022-10-17T01:57:29;1.23;;;0.60;;
25707;SDS011;13567;61.652;17.100;2022-10-17T02:00:01;1.47;;;0.90;;
25707;SDS011;13567;61.652;17.100;2022-10-17T02:02:31;2.20;;;1.10;;
25707;SDS011;13567;61.652;17.100;2022-10-17T02:05:00;1.80;;;0.60;;
25707;SDS011;13567;61.652;17.100;2022-10-17T02:07:29;1.87;;;0.70;;
25707;SDS011;13567;61.652;17.100;2022-10-17T02:09:56;1.87;;;0.77;;
25707;SDS011;13567;61.652;17.100;2022-10-17T02:20:56;0.83;;;0.50;;
25707;SDS011;13567;61.652;17.100;2022-10-17T02:26:18;1.90;;;0.80;;
25707;SDS011;13567;61.652;17.100;2022-10-17T02:31:54;1.00;;;0.60;;
25707;SDS011;13567;61.652;17.100;2022-10-17T02:34:28;0.50;;;0.50;;
25707;SDS011;13567;61.652;17.100;2022-10-17T02:37:10;0.60;;;0.60;;
25707;SDS011;13567;61.652;17.100;2022-10-17T02:39:40;0.87;;;0.70;;
25707;SDS011;13567;61.652;17.100;2022-10-17T02:42:09;2.53;;;0.50;;
25707;SDS011;13567;61.652;17.100;2022-10-17T02:44:39;4.53;;;0.60;;
25707;SDS011;13567;61.652;17.100;2022-10-17T02:47:18;0.63;;;0.47;;
25707;SDS011;13567;61.652;17.100;2022-10-17T02:49:55;1.70;;;0.40;;
25707;SDS011;13567;61.652;17.100;2022-10-17T02:52:37;2.20;;;0.57;;
25707;SDS011;13567;61.652;17.100;2022-10-17T02:57:50;1.07;;;0.70;;
25707;SDS011;13567;61.652;17.100;2022-10-17T03:00:21;0.50;;;0.50;;
25707;SDS011;13567;61.652;17.100;2022-10-17T03:02:51;3.13;;;0.60;;
25707;SDS011;13567;61.652;17.100;2022-10-17T03:05:20;3.80;;;0.60;;
25707;SDS011;13567;61.652;17.100;2022-10-17T03:07:48;1.17;;;0.43;;
25707;SDS011;13567;61.652;17.100;2022-10-17T03:10:16;0.60;;;0.60;;
25707;SDS011;13567;61.652;17.100;2022-10-17T03:12:43;3.07;;;0.60;;
25707;SDS011;13567;61.652;17.100;2022-10-17T03:15:11;3.10;;;0.70;;
25707;SDS011;13567;61.652;17.100;2022-10-17T03:17:38;1.40;;;0.50;;
25707;SDS011;13567;61.652;17.100;2022-10-17T03:20:06;1.37;;;0.67;;
25707;SDS011;13567;61.652;17.100;2022-10-17T03:22:33;0.60;;;0.50;;
25707;SDS011;13567;61.652;17.100;2022-10-17T03:25:00;0.47;;;0.40;;
25707;SDS011;13567;61.652;17.100;2022-10-17T03:27:27;1.80;;;0.70;;
25707;SDS011;13567;61.652;17.100;2022-10-17T03:29:54;0.77;;;0.50;;
25707;SDS011;13567;61.652;17.100;2022-10-17T03:32:21;0.90;;;0.60;;
25707;SDS011;13567;61.652;17.100;2022-10-17T03:34:48;0.40;;;0.40;;
25707;SDS011;13567;61.652;17.100;2022-10-17T03:37:15;4.57;;;0.67;;
25707;SDS011;13567;61.652;17.100;2022-10-17T03:39:42;1.97;;;0.70;;
25707;SDS011;13567;61.652;17.100;2022-10-17T03:42:09;0.53;;;0.53;;
25707;SDS011;13567;61.652;17.100;2022-10-17T03:44:36;2.13;;;0.60;;
25707;SDS011;13567;61.652;17.100;2022-10-17T03:47:03;1.97;;;0.67;;
25707;SDS011;13567;61.652;17.100;2022-10-17T03:49:34;0.50;;;0.50;;
25707;SDS011;13567;61.652;17.100;2022-10-17T03:52:02;2.10;;;0.77;;
25707;SDS011;13567;61.652;17.100;2022-10-17T03:54:29;1.20;;;0.63;;
25707;SDS011;13567;61.652;17.100;2022-10-17T03:56:56;2.70;;;0.87;;
25707;SDS011;13567;61.652;17.100;2022-10-17T03:59:23;2.13;;;0.53;;
25707;SDS011;13567;61.652;17.100;2022-10-17T04:01:50;0.83;;;0.60;;
25707;SDS011;13567;61.652;17.100;2022-10-17T04:04:17;1.87;;;0.60;;
25707;SDS011;13567;61.652;17.100;2022-10-17T04:06:44;2.77;;;0.60;;
25707;SDS011;13567;61.652;17.100;2022-10-17T04:09:11;0.57;;;0.50;;
25707;SDS011;13567;61.652;17.100;2022-10-17T04:11:38;4.30;;;0.90;;
25707;SDS011;13567;61.652;17.100;2022-10-17T04:14:05;2.37;;;0.70;;
25707;SDS011;13567;61.652;17.100;2022-10-17T04:16:32;2.13;;;0.87;;
25707;SDS011;13567;61.652;17.100;2022-10-17T04:18:59;1.07;;;0.70;;
25707;SDS011;13567;61.652;17.100;2022-10-17T04:21:27;2.07;;;0.80;;
25707;SDS011;13567;61.652;17.100;2022-10-17T04:23:56;0.73;;;0.70;;
25707;SDS011;13567;61.652;17.100;2022-10-17T04:26:25;0.80;;;0.63;;
25707;SDS011;13567;61.652;17.100;2022-10-17T04:28:52;1.70;;;0.90;;
25707;SDS011;13567;61.652;17.100;2022-10-17T04:31:19;1.40;;;0.80;;
25707;SDS011;13567;61.652;17.100;2022-10-17T04:33:47;1.40;;;0.90;;
25707;SDS011;13567;61.652;17.100;2022-10-17T04:36:16;1.73;;;0.93;;
25707;SDS011;13567;61.652;17.100;2022-10-17T04:38:45;0.90;;;0.67;;
25707;SDS011;13567;61.652;17.100;2022-10-17T04:41:13;1.10;;;0.70;;
25707;SDS011;13567;61.652;17.100;2022-10-17T04:43:42;1.53;;;0.87;;
25707;SDS011;13567;61.652;17.100;2022-10-17T04:46:16;2.50;;;1.00;;
25707;SDS011;13567;61.652;17.100;2022-10-17T04:48:43;1.63;;;0.60;;
25707;SDS011;13567;61.652;17.100;2022-10-17T04:51:11;3.77;;;0.70;;
25707;SDS011;13567;61.652;17.100;2022-10-17T04:53:40;2.13;;;0.70;;
25707;SDS011;13567;61.652;17.100;2022-10-17T04:56:09;1.23;;;0.73;;
25707;SDS011;13567;61.652;17.100;2022-10-17T04:58:36;1.27;;;0.67;;
25707;SDS011;13567;61.652;17.100;2022-10-17T05:01:08;1.83;;;0.80;;
25707;SDS011;13567;61.652;17.100;2022-10-17T05:03:38;1.93;;;0.80;;
25707;SDS011;13567;61.652;17.100;2022-10-17T05:06:09;1.67;;;0.80;;
25707;SDS011;13567;61.652;17.100;2022-10-17T05:08:38;1.33;;;0.80;;
25707;SDS011;13567;61.652;17.100;2022-10-17T05:11:14;2.33;;;0.97;;
25707;SDS011;13567;61.652;17.100;2022-10-17T05:13:59;3.00;;;1.00;;
25707;SDS011;13567;61.652;17.100;2022-10-17T05:16:27;1.20;;;0.80;;
25707;SDS011;13567;61.652;17.100;2022-10-17T05:18:55;5.50;;;1.17;;
25707;SDS011;13567;61.652;17.100;2022-10-17T05:21:24;4.87;;;1.10;;
25707;SDS011;13567;61.652;17.100;2022-10-17T05:23:52;2.93;;;1.00;;
25707;SDS011;13567;61.652;17.100;2022-10-17T05:26:20;2.50;;;1.10;;
25707;SDS011;13567;61.652;17.100;2022-10-17T05:28:47;4.23;;;1.30;;
25707;SDS011;13567;61.652;17.100;2022-10-17T05:31:15;1.13;;;0.83;;
25707;SDS011;13567;61.652;17.100;2022-10-17T05:33:42;3.30;;;1.17;;
25707;SDS011;13567;61.652;17.100;2022-10-17T05:36:09;3.37;;;1.27;;
25707;SDS011;13567;61.652;17.100;2022-10-17T05:38:36;3.17;;;1.20;;
25707;SDS011;13567;61.652;17.100;2022-10-17T05:41:04;2.17;;;1.10;;
25707;SDS011;13567;61.652;17.100;2022-10-17T05:43:32;4.47;;;1.00;;
25707;SDS011;13567;61.652;17.100;2022-10-17T05:46:03;2.10;;;0.83;;
25707;SDS011;13567;61.652;17.100;2022-10-17T05:48:31;2.90;;;1.00;;
25707;SDS011;13567;61.652;17.100;2022-10-17T05:50:59;4.67;;;1.40;;
25707;SDS011;13567;61.652;17.100;2022-10-17T05:53:32;3.83;;;1.10;;
25707;SDS011;13567;61.652;17.100;2022-10-17T05:56:01;31.47;;;12.10;;
25707;SDS011;13567;61.652;17.100;2022-10-17T05:58:30;13.77;;;3.93;;
25707;SDS011;13567;61.652;17.100;2022-10-17T06:01:15;6.03;;;1.90;;
25707;SDS011;13567;61.652;17.100;2022-10-17T06:03:42;6.87;;;1.93;;
25707;SDS011;13567;61.652;17.100;2022-10-17T06:06:11;1.63;;;1.03;;
25707;SDS011;13567;61.652;17.100;2022-10-17T06:08:39;2.33;;;1.00;;
25707;SDS011;13567;61.652;17.100;2022-10-17T06:11:06;4.17;;;0.83;;
25707;SDS011;13567;61.652;17.100;2022-10-17T06:13:36;2.73;;;0.97;;
25707;SDS011;13567;61.652;17.100;2022-10-17T06:16:04;1.27;;;0.80;;
25707;SDS011;13567;61.652;17.100;2022-10-17T06:18:31;2.67;;;0.97;;
25707;SDS011;13567;61.652;17.100;2022-10-17T06:21:06;2.43;;;0.97;;
25707;SDS011;13567;61.652;17.100;2022-10-17T06:23:35;1.63;;;0.87;;
25707;SDS011;13567;61.652;17.100;2022-10-17T06:26:03;2.17;;;0.80;;
25707;SDS011;13567;61.652;17.100;2022-10-17T06:28:31;1.00;;;0.90;;
25707;SDS011;13567;61.652;17.100;2022-10-17T06:31:02;1.43;;;0.90;;
25707;SDS011;13567;61.652;17.100;2022-10-17T06:33:33;1.17;;;0.83;;
25707;SDS011;13567;61.652;17.100;2022-10-17T06:36:00;3.63;;;1.10;;
25707;SDS011;13567;61.652;17.100;2022-10-17T06:38:28;4.20;;;0.93;;
25707;SDS011;13567;61.652;17.100;2022-10-17T06:41:05;1.20;;;0.57;;
25707;SDS011;13567;61.652;17.100;2022-10-17T06:43:37;3.22;;;0.80;;
25707;SDS011;13567;61.652;17.100;2022-10-17T06:46:05;2.90;;;0.70;;
25707;SDS011;13567;61.652;17.100;2022-10-17T06:48:32;0.88;;;0.35;;
25707;SDS011;13567;61.652;17.100;2022-10-17T06:51:00;2.40;;;0.50;;
25707;SDS011;13567;61.652;17.100;2022-10-17T06:53:28;1.20;;;0.50;;
25707;SDS011;13567;61.652;17.100;2022-10-17T06:55:56;1.58;;;0.45;;
25707;SDS011;13567;61.652;17.100;2022-10-17T06:58:35;0.20;;;0.20;;
25707;SDS011;13567;61.652;17.100;2022-10-17T07:01:08;1.98;;;0.50;;
25707;SDS011;13567;61.652;17.100;2022-10-17T07:03:39;0.90;;;0.55;;
25707;SDS011;13567;61.652;17.100;2022-10-17T07:06:06;1.38;;;0.30;;
25707;SDS011;13567;61.652;17.100;2022-10-17T07:08:33;1.40;;;0.30;;
25707;SDS011;13567;61.652;17.100;2022-10-17T07:11:11;2.05;;;0.45;;
25707;SDS011;13567;61.652;17.100;2022-10-17T07:13:40;0.20;;;0.20;;
25707;SDS011;13567;61.652;17.100;2022-10-17T07:16:07;1.63;;;0.25;;
25707;SDS011;13567;61.652;17.100;2022-10-17T07:18:35;1.95;;;0.50;;
25707;SDS011;13567;61.652;17.100;2022-10-17T07:21:03;1.65;;;0.52;;
25707;SDS011;13567;61.652;17.100;2022-10-17T07:23:30;7.07;;;0.40;;
25707;SDS011;13567;61.652;17.100;2022-10-17T07:25:59;4.35;;;0.50;;
25707;SDS011;13567;61.652;17.100;2022-10-17T07:28:27;2.20;;;0.30;;
25707;SDS011;13567;61.652;17.100;2022-10-17T07:30:54;0.10;;;0.10;;
25707;SDS011;13567;61.652;17.100;2022-10-17T07:33:21;0.68;;;0.20;;
25707;SDS011;13567;61.652;17.100;2022-10-17T07:35:48;0.25;;;0.20;;
25707;SDS011;13567;61.652;17.100;2022-10-17T07:38:17;2.97;;;0.60;;
25707;SDS011;13567;61.652;17.100;2022-10-17T07:40:44;2.13;;;0.30;;
25707;SDS011;13567;61.652;17.100;2022-10-17T07:43:11;1.55;;;0.40;;
25707;SDS011;13567;61.652;17.100;2022-10-17T07:45:39;1.42;;;0.25;;
25707;SDS011;13567;61.652;17.100;2022-10-17T07:48:06;0.75;;;0.28;;
25707;SDS011;13567;61.652;17.100;2022-10-17T07:50:33;1.10;;;0.20;;
25707;SDS011;13567;61.652;17.100;2022-10-17T07:53:00;1.95;;;0.20;;
25707;SDS011;13567;61.652;17.100;2022-10-17T07:55:27;1.00;;;0.20;;
25707;SDS011;13567;61.652;17.100;2022-10-17T07:57:54;0.70;;;0.25;;
25707;SDS011;13567;61.652;17.100;2022-10-17T08:00:23;3.70;;;0.40;;
25707;SDS011;13567;61.652;17.100;2022-10-17T08:02:50;2.20;;;0.10;;
25707;SDS011;13567;61.652;17.100;2022-10-17T08:05:17;1.85;;;0.30;;
25707;SDS011;13567;61.652;17.100;2022-10-17T08:07:44;1.83;;;0.20;;
25707;SDS011;13567;61.652;17.100;2022-10-17T08:10:11;1.20;;;0.30;;
25707;SDS011;13567;61.652;17.100;2022-10-17T08:12:40;0.38;;;0.30;;
25707;SDS011;13567;61.652;17.100;2022-10-17T08:15:08;0.55;;;0.15;;
25707;SDS011;13567;61.652;17.100;2022-10-17T08:17:36;3.40;;;0.47;;
25707;SDS011;13567;61.652;17.100;2022-10-17T08:20:04;0.70;;;0.10;;
25707;SDS011;13567;61.652;17.100;2022-10-17T08:22:32;1.23;;;0.30;;
25707;SDS011;13567;61.652;17.100;2022-10-17T08:24:59;1.65;;;0.40;;
25707;SDS011;13567;61.652;17.100;2022-10-17T08:27:26;1.20;;;0.20;;
25707;SDS011;13567;61.652;17.100;2022-10-17T08:29:54;1.27;;;0.20;;
25707;SDS011;13567;61.652;17.100;2022-10-17T08:32:21;0.63;;;0.13;;
25707;SDS011;13567;61.652;17.100;2022-10-17T08:34:54;2.92;;;0.20;;
25707;SDS011;13567;61.652;17.100;2022-10-17T08:37:22;0.30;;;0.20;;
25707;SDS011;13567;61.652;17.100;2022-10-17T08:39:49;2.30;;;0.20;;
25707;SDS011;13567;61.652;17.100;2022-10-17T08:45:24;0.40;;;0.20;;
25707;SDS011;13567;61.652;17.100;2022-10-17T08:47:58;0.00;;;0.00;;
25707;SDS011;13567;61.652;17.100;2022-10-17T08:50:29;0.75;;;0.10;;
25707;SDS011;13567;61.652;17.100;2022-10-17T08:53:27;0.00;;;0.00;;
25707;SDS011;13567;61.652;17.100;2022-10-17T08:55:55;1.15;;;0.10;;
25707;SDS011;13567;61.652;17.100;2022-10-17T08:58:24;0.30;;;0.10;;
25707;SDS011;13567;61.652;17.100;2022-10-17T09:01:21;3.45;;;0.30;;
25707;SDS011;13567;61.652;17.100;2022-10-17T09:07:04;2.08;;;0.22;;
25707;SDS011;13567;61.652;17.100;2022-10-17T09:15:37;1.02;;;0.20;;
25707;SDS011;13567;61.652;17.100;2022-10-17T09:20:51;0.55;;;0.13;;
25707;SDS011;13567;61.652;17.100;2022-10-17T09:23:48;0.85;;;0.10;;
25707;SDS011;13567;61.652;17.100;2022-10-17T09:26:35;0.40;;;0.10;;
25707;SDS011;13567;61.652;17.100;2022-10-17T09:29:11;2.83;;;0.15;;
25707;SDS011;13567;61.652;17.100;2022-10-17T09:32:01;3.35;;;0.38;;
25707;SDS011;13567;61.652;17.100;2022-10-17T09:34:36;0.20;;;0.13;;
25707;SDS011;13567;61.652;17.100;2022-10-17T09:37:03;1.38;;;0.28;;
25707;SDS011;13567;61.652;17.100;2022-10-17T09:39:38;1.58;;;0.20;;
25707;SDS011;13567;61.652;17.100;2022-10-17T09:42:09;0.38;;;0.10;;
25707;SDS011;13567;61.652;17.100;2022-10-17T09:47:40;2.58;;;0.10;;
25707;SDS011;13567;61.652;17.100;2022-10-17T09:50:23;1.40;;;0.10;;
25707;SDS011;13567;61.652;17.100;2022-10-17T09:53:02;2.30;;;0.10;;
25707;SDS011;13567;61.652;17.100;2022-10-17T09:58:13;1.10;;;0.13;;
25707;SDS011;13567;61.652;17.100;2022-10-17T10:00:42;2.22;;;0.15;;
25707;SDS011;13567;61.652;17.100;2022-10-17T10:03:18;0.00;;;0.00;;
25707;SDS011;13567;61.652;17.100;2022-10-17T10:08:32;1.33;;;0.13;;
25707;SDS011;13567;61.652;17.100;2022-10-17T10:11:14;1.42;;;0.20;;
25707;SDS011;13567;61.652;17.100;2022-10-17T10:13:43;0.88;;;0.13;;
25707;SDS011;13567;61.652;17.100;2022-10-17T10:16:17;0.40;;;0.20;;
25707;SDS011;13567;61.652;17.100;2022-10-17T10:18:47;0.43;;;0.20;;
25707;SDS011;13567;61.652;17.100;2022-10-17T10:21:17;0.08;;;0.00;;
25707;SDS011;13567;61.652;17.100;2022-10-17T10:26:26;2.20;;;0.15;;
25707;SDS011;13567;61.652;17.100;2022-10-17T10:29:04;3.15;;;0.20;;
25707;SDS011;13567;61.652;17.100;2022-10-17T10:31:45;1.23;;;0.20;;
25707;SDS011;13567;61.652;17.100;2022-10-17T10:34:17;1.15;;;0.20;;
25707;SDS011;13567;61.652;17.100;2022-10-17T10:37:13;0.13;;;0.10;;
25707;SDS011;13567;61.652;17.100;2022-10-17T10:39:47;0.10;;;0.10;;
25707;SDS011;13567;61.652;17.100;2022-10-17T10:42:33;0.65;;;0.20;;
25707;SDS011;13567;61.652;17.100;2022-10-17T10:48:19;1.17;;;0.10;;
25707;SDS011;13567;61.652;17.100;2022-10-17T10:53:27;0.03;;;0.03;;
25707;SDS011;13567;61.652;17.100;2022-10-17T10:58:53;0.65;;;0.10;;
25707;SDS011;13567;61.652;17.100;2022-10-17T11:10:40;0.45;;;0.20;;
25707;SDS011;13567;61.652;17.100;2022-10-17T11:15:20;1.20;;;0.10;;
25707;SDS011;13567;61.652;17.100;2022-10-17T11:24:08;0.40;;;0.10;;
25707;SDS011;13567;61.652;17.100;2022-10-17T11:27:13;0.60;;;0.20;;
25707;SDS011;13567;61.652;17.100;2022-10-17T11:29:37;0.32;;;0.20;;
25707;SDS011;13567;61.652;17.100;2022-10-17T11:32:14;0.73;;;0.20;;
25707;SDS011;13567;61.652;17.100;2022-10-17T11:34:56;0.50;;;0.30;;
25707;SDS011;13567;61.652;17.100;2022-10-17T11:37:35;1.38;;;0.28;;
25707;SDS011;13567;61.652;17.100;2022-10-17T11:40:13;0.65;;;0.20;;
25707;SDS011;13567;61.652;17.100;2022-10-17T11:45:26;0.32;;;0.20;;
25707;SDS011;13567;61.652;17.100;2022-10-17T11:48:00;1.45;;;0.30;;
25707;SDS011;13567;61.652;17.100;2022-10-17T11:50:33;0.88;;;0.20;;
25707;SDS011;13567;61.652;17.100;2022-10-17T11:53:28;0.35;;;0.20;;
25707;SDS011;13567;61.652;17.100;2022-10-17T11:56:02;1.45;;;0.10;;
25707;SDS011;13567;61.652;17.100;2022-10-17T12:01:31;0.80;;;0.30;;
25707;SDS011;13567;61.652;17.100;2022-10-17T12:04:21;0.55;;;0.30;;
25707;SDS011;13567;61.652;17.100;2022-10-17T12:07:08;1.50;;;0.32;;
25707;SDS011;13567;61.652;17.100;2022-10-17T12:12:39;2.60;;;0.50;;
25707;SDS011;13567;61.652;17.100;2022-10-17T12:17:39;2.35;;;0.82;;
25707;SDS011;13567;61.652;17.100;2022-10-17T12:22:51;3.38;;;0.40;;
25707;SDS011;13567;61.652;17.100;2022-10-17T12:25:27;1.30;;;0.50;;
25707;SDS011;13567;61.652;17.100;2022-10-17T12:30:52;1.30;;;0.38;;
25707;SDS011;13567;61.652;17.100;2022-10-17T12:33:29;2.00;;;0.32;;
25707;SDS011;13567;61.652;17.100;2022-10-17T12:38:47;3.00;;;0.40;;
25707;SDS011;13567;61.652;17.100;2022-10-17T12:41:16;0.52;;;0.30;;
25707;SDS011;13567;61.652;17.100;2022-10-17T12:49:45;0.70;;;0.40;;
25707;SDS011;13567;61.652;17.100;2022-10-17T12:57:41;0.68;;;0.30;;
25707;SDS011;13567;61.652;17.100;2022-10-17T13:02:49;1.88;;;0.73;;
25707;SDS011;13567;61.652;17.100;2022-10-17T13:05:29;1.45;;;0.55;;
25707;SDS011;13567;61.652;17.100;2022-10-17T13:07:59;0.57;;;0.40;;
25707;SDS011;13567;61.652;17.100;2022-10-17T13:10:29;0.88;;;0.30;;
25707;SDS011;13567;61.652;17.100;2022-10-17T13:13:15;1.02;;;0.50;;
25707;SDS011;13567;61.652;17.100;2022-10-17T13:15:46;0.63;;;0.40;;
25707;SDS011;13567;61.652;17.100;2022-10-17T13:18:19;0.93;;;0.45;;
25707;SDS011;13567;61.652;17.100;2022-10-17T13:23:51;1.58;;;0.60;;
25707;SDS011;13567;61.652;17.100;2022-10-17T13:26:20;0.45;;;0.30;;
25707;SDS011;13567;61.652;17.100;2022-10-17T13:29:02;2.28;;;0.50;;
25707;SDS011;13567;61.652;17.100;2022-10-17T13:31:35;2.63;;;0.60;;
25707;SDS011;13567;61.652;17.100;2022-10-17T13:34:20;2.25;;;0.73;;
25707;SDS011;13567;61.652;17.100;2022-10-17T13:36:49;3.28;;;0.65;;
25707;SDS011;13567;61.652;17.100;2022-10-17T13:39:24;2.00;;;0.68;;
25707;SDS011;13567;61.652;17.100;2022-10-17T13:42:56;5.82;;;0.95;;
25707;SDS011;13567;61.652;17.100;2022-10-17T13:45:15;6.03;;;1.40;;
25707;SDS011;13567;61.652;17.100;2022-10-17T13:47:47;5.55;;;1.50;;
25707;SDS011;13567;61.652;17.100;2022-10-17T13:50:26;4.03;;;1.73;;
25707;SDS011;13567;61.652;17.100;2022-10-17T13:53:29;4.88;;;1.40;;
25707;SDS011;13567;61.652;17.100;2022-10-17T13:56:03;5.53;;;2.03;;
25707;SDS011;13567;61.652;17.100;2022-10-17T13:58:53;5.82;;;1.90;;
25707;SDS011;13567;61.652;17.100;2022-10-17T14:01:23;6.75;;;2.53;;
25707;SDS011;13567;61.652;17.100;2022-10-17T14:03:52;6.55;;;2.17;;
25707;SDS011;13567;61.652;17.100;2022-10-17T14:06:34;7.47;;;2.50;;
25707;SDS011;13567;61.652;17.100;2022-10-17T14:09:23;11.02;;;2.92;;
25707;SDS011;13567;61.652;17.100;2022-10-17T14:11:57;8.02;;;3.08;;
25707;SDS011;13567;61.652;17.100;2022-10-17T14:14:48;9.48;;;2.17;;
25707;SDS011;13567;61.652;17.100;2022-10-17T14:17:35;5.18;;;1.60;;
25707;SDS011;13567;61.652;17.100;2022-10-17T14:20:04;4.20;;;1.80;;
25707;SDS011;13567;61.652;17.100;2022-10-17T14:22:53;6.90;;;2.25;;
25707;SDS011;13567;61.652;17.100;2022-10-17T14:25:41;4.38;;;2.00;;
25707;SDS011;13567;61.652;17.100;2022-10-17T14:28:13;6.30;;;1.90;;
25707;SDS011;13567;61.652;17.100;2022-10-17T14:30:42;5.55;;;1.83;;
25707;SDS011;13567;61.652;17.100;2022-10-17T14:33:23;5.93;;;1.75;;
25707;SDS011;13567;61.652;17.100;2022-10-17T14:35:58;2.65;;;0.90;;
25707;SDS011;13567;61.652;17.100;2022-10-17T14:38:27;5.00;;;1.40;;
25707;SDS011;13567;61.652;17.100;2022-10-17T14:40:59;3.95;;;0.98;;
25707;SDS011;13567;61.652;17.100;2022-10-17T14:43:58;4.10;;;1.17;;
25707;SDS011;13567;61.652;17.100;2022-10-17T14:46:34;4.18;;;1.42;;
25707;SDS011;13567;61.652;17.100;2022-10-17T14:49:03;3.38;;;0.95;;
25707;SDS011;13567;61.652;17.100;2022-10-17T14:54:47;3.35;;;0.80;;
25707;SDS011;13567;61.652;17.100;2022-10-17T14:57:21;1.83;;;0.80;;
25707;SDS011;13567;61.652;17.100;2022-10-17T14:59:50;2.60;;;0.80;;
25707;SDS011;13567;61.652;17.100;2022-10-17T15:02:20;3.30;;;1.17;;
25707;SDS011;13567;61.652;17.100;2022-10-17T15:04:52;4.03;;;1.10;;
25707;SDS011;13567;61.652;17.100;2022-10-17T15:07:19;6.20;;;1.60;;
25707;SDS011;13567;61.652;17.100;2022-10-17T15:09:48;4.75;;;1.80;;
25707;SDS011;13567;61.652;17.100;2022-10-17T15:12:17;2.00;;;1.00;;
25707;SDS011;13567;61.652;17.100;2022-10-17T15:14:46;2.05;;;1.10;;
25707;SDS011;13567;61.652;17.100;2022-10-17T15:17:15;3.35;;;1.05;;
25707;SDS011;13567;61.652;17.100;2022-10-17T15:19:46;4.18;;;1.17;;
25707;SDS011;13567;61.652;17.100;2022-10-17T15:22:14;4.63;;;1.00;;
25707;SDS011;13567;61.652;17.100;2022-10-17T15:24:41;2.90;;;1.00;;
25707;SDS011;13567;61.652;17.100;2022-10-17T15:27:15;3.80;;;0.80;;
25707;SDS011;13567;61.652;17.100;2022-10-17T15:29:47;1.45;;;0.77;;
25707;SDS011;13567;61.652;17.100;2022-10-17T15:32:14;4.63;;;1.07;;
25707;SDS011;13567;61.652;17.100;2022-10-17T15:34:42;3.20;;;0.90;;
25707;SDS011;13567;61.652;17.100;2022-10-17T15:37:16;4.27;;;1.10;;
25707;SDS011;13567;61.652;17.100;2022-10-17T15:39:48;6.25;;;1.13;;
25707;SDS011;13567;61.652;17.100;2022-10-17T15:42:21;1.48;;;0.70;;
25707;SDS011;13567;61.652;17.100;2022-10-17T15:44:51;3.50;;;0.80;;
25707;SDS011;13567;61.652;17.100;2022-10-17T15:47:23;1.80;;;0.83;;
25707;SDS011;13567;61.652;17.100;2022-10-17T15:49:50;7.83;;;2.10;;
25707;SDS011;13567;61.652;17.100;2022-10-17T15:52:18;3.13;;;0.80;;
25707;SDS011;13567;61.652;17.100;2022-10-17T15:54:45;3.60;;;0.87;;
25707;SDS011;13567;61.652;17.100;2022-10-17T15:57:22;2.17;;;0.80;;
25707;SDS011;13567;61.652;17.100;2022-10-17T15:59:51;2.33;;;0.83;;
25707;SDS011;13567;61.652;17.100;2022-10-17T16:02:20;1.80;;;0.73;;
25707;SDS011;13567;61.652;17.100;2022-10-17T16:04:49;1.63;;;0.70;;
25707;SDS011;13567;61.652;17.100;2022-10-17T16:07:18;1.33;;;0.63;;
25707;SDS011;13567;61.652;17.100;2022-10-17T16:09:45;1.43;;;0.70;;
25707;SDS011;13567;61.652;17.100;2022-10-17T16:12:17;1.30;;;0.80;;
25707;SDS011;13567;61.652;17.100;2022-10-17T16:14:53;3.40;;;0.90;;
25707;SDS011;13567;61.652;17.100;2022-10-17T16:17:20;4.13;;;1.10;;
25707;SDS011;13567;61.652;17.100;2022-10-17T16:19:47;2.20;;;0.73;;
25707;SDS011;13567;61.652;17.100;2022-10-17T16:22:31;9.00;;;1.17;;
25707;SDS011;13567;61.652;17.100;2022-10-17T16:25:05;2.08;;;0.90;;
25707;SDS011;13567;61.652;17.100;2022-10-17T16:27:35;3.43;;;0.93;;
25707;SDS011;13567;61.652;17.100;2022-10-17T16:30:03;2.30;;;0.93;;
25707;SDS011;13567;61.652;17.100;2022-10-17T16:32:32;2.13;;;0.90;;
25707;SDS011;13567;61.652;17.100;2022-10-17T16:34:59;1.40;;;0.83;;
25707;SDS011;13567;61.652;17.100;2022-10-17T16:37:26;4.50;;;1.20;;
25707;SDS011;13567;61.652;17.100;2022-10-17T16:39:53;3.60;;;1.10;;
25707;SDS011;13567;61.652;17.100;2022-10-17T16:42:20;3.77;;;0.90;;
25707;SDS011;13567;61.652;17.100;2022-10-17T16:44:48;1.93;;;0.87;;
25707;SDS011;13567;61.652;17.100;2022-10-17T16:47:16;5.27;;;1.10;;
25707;SDS011;13567;61.652;17.100;2022-10-17T16:49:44;1.30;;;0.70;;
25707;SDS011;13567;61.652;17.100;2022-10-17T16:52:11;3.63;;;0.60;;
25707;SDS011;13567;61.652;17.100;2022-10-17T16:54:38;3.67;;;1.10;;
25707;SDS011;13567;61.652;17.100;2022-10-17T16:57:06;2.63;;;1.10;;
25707;SDS011;13567;61.652;17.100;2022-10-17T16:59:33;1.40;;;0.80;;
25707;SDS011;13567;61.652;17.100;2022-10-17T17:02:00;4.50;;;1.10;;
25707;SDS011;13567;61.652;17.100;2022-10-17T17:04:27;1.90;;;1.07;;
25707;SDS011;13567;61.652;17.100;2022-10-17T17:06:54;1.50;;;0.73;;
25707;SDS011;13567;61.652;17.100;2022-10-17T17:09:21;4.20;;;1.03;;
25707;SDS011;13567;61.652;17.100;2022-10-17T17:11:48;4.27;;;1.30;;